TimeCST,TemperatureF,Dew PointF,Humidity,Sea Level PressureIn,VisibilityMPH,Wind Direction,Wind SpeedMPH,Gust SpeedMPH,PrecipitationIn,Events,Conditions,WindDirDegrees,DateUTC
12:54 AM,34.0,19.0,54,30.25,10.0,SSE,6.9,-,N/A,,Clear,160,2012-12-13 06:54:00
1:54 AM,36.0,19.0,50,30.25,10.0,South,10.4,-,N/A,,Clear,180,2012-12-13 07:54:00
2:54 AM,35.1,19.0,52,30.26,10.0,South,10.4,-,N/A,,Clear,180,2012-12-13 08:54:00
3:54 AM,35.1,19.0,52,30.25,10.0,South,9.2,-,N/A,,Clear,190,2012-12-13 09:54:00
4:54 AM,33.1,19.0,56,30.25,10.0,South,6.9,-,N/A,,Clear,180,2012-12-13 10:54:00
5:54 AM,34.0,19.0,54,30.24,10.0,South,9.2,-,N/A,,Clear,170,2012-12-13 11:54:00
6:54 AM,33.1,19.0,56,30.24,10.0,South,10.4,-,N/A,,Clear,170,2012-12-13 12:54:00
7:54 AM,34.0,19.9,56,30.24,10.0,South,10.4,-,N/A,,Clear,170,2012-12-13 13:54:00
8:54 AM,36.0,19.9,52,30.24,10.0,South,9.2,-,N/A,,Clear,170,2012-12-13 14:54:00
9:54 AM,41.0,21.0,45,30.23,10.0,South,13.8,-,N/A,,Clear,190,2012-12-13 15:54:00
10:54 AM,46.0,21.9,39,30.21,10.0,South,13.8,-,N/A,,Clear,190,2012-12-13 16:54:00
11:54 AM,48.0,23.0,37,30.19,10.0,SSW,15.0,-,N/A,,Clear,200,2012-12-13 17:54:00
12:54 PM,52.0,24.1,34,30.17,10.0,SW,13.8,-,N/A,,Clear,220,2012-12-13 18:54:00
1:54 PM,52.0,23.0,32,30.13,10.0,SW,17.3,-,N/A,,Clear,220,2012-12-13 19:54:00
2:54 PM,53.1,25.0,34,30.12,10.0,SSW,13.8,-,N/A,,Clear,210,2012-12-13 20:54:00
3:54 PM,51.1,26.1,38,30.12,10.0,SSW,9.2,-,N/A,,Clear,200,2012-12-13 21:54:00
6:54 PM,46.4,24.8,43,30.11,10.0,South,5.8,-,N/A,,Clear,170,2012-12-14 00:54:00
7:54 PM,39.2,24.8,56,30.12,10.0,SSW,5.8,-,N/A,,Clear,200,2012-12-14 01:54:00
8:54 PM,39.0,23.0,53,30.15,10.0,South,6.9,-,N/A,,Clear,190,2012-12-14 02:54:00
9:54 PM,39.0,23.0,53,30.15,10.0,South,9.2,-,N/A,,Clear,190,2012-12-14 03:54:00
10:54 PM,37.9,23.0,55,30.16,10.0,South,8.1,-,N/A,,Clear,190,2012-12-14 04:54:00
11:54 PM,37.0,23.0,57,30.16,10.0,SSW,8.1,-,N/A,,Clear,200,2012-12-14 05:54:00